createdAt,value
2018-03-01T00:00:26.235Z,26.20
2018-03-01T00:01:26.217Z,28.60
2018-03-01T00:02:26.201Z,28.90
2018-03-01T00:03:26.185Z,29.60
2018-03-01T00:04:26.167Z,29.30
2018-03-01T00:05:26.153Z,28.80
2018-03-01T00:06:26.137Z,27.20
2018-03-01T00:07:26.120Z,27.30
2018-03-01T00:08:26.103Z,29.70
2018-03-01T00:09:26.086Z,26.10
2018-03-01T00:10:26.070Z,30.90
2018-03-01T00:11:26.054Z,28.70
2018-03-01T00:12:26.042Z,25.20
2018-03-01T00:13:26.019Z,28.70
2018-03-01T00:14:26.001Z,26.10
2018-03-01T00:15:25.985Z,26.60
2018-03-01T00:16:25.966Z,29.40
2018-03-01T00:17:25.952Z,31.30
2018-03-01T00:18:25.937Z,29.60
2018-03-01T00:19:25.919Z,30.50
2018-03-01T00:20:25.903Z,27.10
2018-03-01T00:21:25.883Z,24.10
2018-03-01T00:22:25.866Z,27.90
2018-03-01T00:23:25.850Z,25.40
2018-03-01T00:24:25.832Z,28.60
2018-03-01T00:25:25.814Z,26.40
2018-03-01T00:26:25.800Z,28.80
2018-03-01T00:27:25.784Z,28.50
2018-03-01T00:28:25.764Z,27.30
2018-03-01T00:29:25.750Z,24.80
2018-03-01T00:30:25.733Z,27.90
2018-03-01T00:31:25.718Z,26.10
2018-03-01T00:32:25.700Z,30.10
2018-03-01T00:33:25.682Z,29.00
2018-03-01T00:34:25.666Z,29.00
2018-03-01T00:35:25.650Z,30.10
2018-03-01T00:36:25.631Z,25.20
2018-03-01T00:37:25.613Z,25.70
2018-03-01T00:38:25.596Z,26.80
2018-03-01T00:39:25.613Z,25.50
2018-03-01T00:40:25.561Z,27.50
2018-03-01T00:41:25.546Z,27.10
2018-03-01T00:42:25.528Z,25.40
2018-03-01T00:43:25.515Z,28.70
2018-03-01T00:44:25.522Z,30.00
2018-03-01T00:45:25.481Z,28.00
2018-03-01T00:46:25.463Z,28.50
2018-03-01T00:47:25.446Z,28.00
2018-03-01T00:48:25.429Z,29.70
2018-03-01T00:49:25.414Z,27.30
2018-03-01T00:50:25.397Z,26.90
2018-03-01T00:51:25.381Z,30.80
2018-03-01T00:52:25.362Z,32.10
2018-03-01T00:53:25.343Z,29.10
2018-03-01T00:54:25.326Z,29.20
2018-03-01T00:55:25.309Z,28.80
2018-03-01T00:56:25.293Z,29.80
2018-03-01T00:57:25.275Z,28.80
2018-03-01T00:58:25.258Z,27.30
2018-03-01T00:59:25.242Z,29.70
2018-03-01T01:00:25.225Z,29.90
2018-03-01T01:01:25.211Z,29.70
2018-03-01T01:02:25.200Z,29.50
2018-03-01T01:03:25.177Z,28.20
2018-03-01T01:04:25.162Z,27.50
2018-03-01T01:05:25.144Z,27.00
2018-03-01T01:06:25.137Z,30.10
2018-03-01T01:07:25.110Z,27.90
2018-03-01T01:08:25.093Z,30.60
2018-03-01T01:09:25.074Z,27.70
2018-03-01T01:10:25.058Z,27.50
2018-03-01T01:11:25.042Z,31.00
2018-03-01T01:12:25.028Z,28.20
2018-03-01T01:13:25.007Z,27.90
2018-03-01T01:14:24.999Z,28.90
2018-03-01T01:15:24.978Z,28.10
2018-03-01T01:16:24.956Z,27.40
2018-03-01T01:17:24.942Z,31.00
2018-03-01T01:18:24.927Z,30.40
2018-03-01T01:19:24.909Z,28.00
2018-03-01T01:20:24.893Z,29.80
2018-03-01T01:21:24.873Z,30.30
2018-03-01T01:22:24.856Z,28.90
2018-03-01T01:23:24.840Z,26.80
2018-03-01T01:24:24.822Z,28.70
2018-03-01T01:25:24.809Z,29.10
2018-03-01T01:26:24.792Z,27.90
2018-03-01T01:27:24.775Z,29.00
2018-03-01T01:28:24.758Z,30.50
2018-03-01T01:29:24.742Z,31.00
2018-03-01T01:30:24.728Z,25.90
2018-03-01T01:31:24.709Z,31.90
2018-03-01T01:32:25.241Z,27.00
2018-03-01T01:33:24.673Z,29.10
2018-03-01T01:34:24.655Z,27.00
2018-03-01T01:35:24.639Z,29.10
2018-03-01T01:36:24.625Z,28.20
2018-03-01T01:37:24.606Z,30.00
2018-03-01T01:38:24.588Z,27.90
2018-03-01T01:39:24.618Z,29.80
2018-03-01T01:40:24.555Z,27.70
2018-03-01T01:41:24.541Z,26.70
2018-03-01T01:42:24.528Z,29.40
2018-03-01T01:43:24.508Z,27.10
2018-03-01T01:44:24.490Z,29.20
2018-03-01T01:45:24.475Z,25.50
2018-03-01T01:46:24.458Z,27.90
2018-03-01T01:47:24.442Z,27.70
2018-03-01T01:48:24.452Z,28.50
2018-03-01T01:49:24.404Z,25.90
2018-03-01T01:50:24.390Z,26.90
2018-03-01T01:51:24.372Z,27.80
2018-03-01T01:52:24.355Z,29.10
2018-03-01T01:53:24.337Z,29.20
2018-03-01T01:54:24.321Z,31.60
2018-03-01T01:55:24.304Z,26.90
2018-03-01T01:56:24.286Z,29.10
2018-03-01T01:57:24.274Z,26.60
2018-03-01T01:58:24.258Z,25.80
2018-03-01T01:59:24.241Z,24.70
2018-03-01T02:00:24.226Z,27.50
2018-03-01T02:01:24.206Z,29.20
2018-03-01T02:02:24.190Z,23.20
2018-03-01T02:03:24.174Z,25.00
2018-03-01T02:04:24.159Z,26.80
2018-03-01T02:05:24.138Z,26.30
2018-03-01T02:06:24.120Z,26.30
2018-03-01T02:07:24.104Z,25.00
2018-03-01T02:08:24.086Z,24.50
2018-03-01T02:09:24.073Z,27.10
2018-03-01T02:10:24.054Z,24.10
2018-03-01T02:11:24.037Z,28.00
2018-03-01T02:12:24.019Z,24.40
2018-03-01T02:13:24.006Z,24.00
2018-03-01T02:14:23.990Z,24.80
2018-03-01T02:15:23.973Z,23.80
2018-03-01T02:16:23.954Z,23.00
2018-03-01T02:17:23.938Z,26.90
2018-03-01T02:18:23.922Z,27.40
2018-03-01T02:19:23.905Z,24.70
2018-03-01T02:20:23.888Z,25.30
2018-03-01T02:21:23.868Z,24.50
2018-03-01T02:22:23.851Z,23.20
2018-03-01T02:23:23.834Z,22.60
2018-03-01T02:24:23.816Z,24.50
2018-03-01T02:25:23.800Z,22.40
2018-03-01T02:26:23.783Z,22.80
2018-03-01T02:27:23.766Z,20.10
2018-03-01T02:28:23.749Z,21.90
2018-03-01T02:29:23.734Z,28.40
2018-03-01T02:30:23.719Z,29.50
2018-03-01T02:31:23.702Z,22.70
2018-03-01T02:32:23.695Z,22.60
2018-03-01T02:33:23.669Z,22.70
2018-03-01T02:34:23.650Z,23.90
2018-03-01T02:35:23.633Z,27.30
2018-03-01T02:36:23.615Z,24.20
2018-03-01T02:37:23.597Z,23.60
2018-03-01T02:38:23.580Z,23.00
2018-03-01T02:39:23.562Z,23.30
2018-03-01T02:40:23.545Z,23.20
2018-03-01T02:41:23.527Z,26.30
2018-03-01T02:42:23.513Z,25.60
2018-03-01T02:43:23.498Z,24.80
2018-03-01T02:44:23.479Z,23.10
2018-03-01T02:45:23.462Z,29.30
2018-03-01T02:46:23.445Z,23.10
2018-03-01T02:47:23.428Z,24.60
2018-03-01T02:48:23.411Z,26.10
2018-03-01T02:49:23.399Z,22.00
2018-03-01T02:50:23.378Z,20.70
2018-03-01T02:51:23.362Z,22.40
2018-03-01T02:52:23.343Z,24.50
2018-03-01T02:53:23.323Z,22.90
2018-03-01T02:54:23.306Z,22.00
2018-03-01T02:55:23.289Z,21.80
2018-03-01T02:56:23.271Z,22.60
2018-03-01T02:57:23.253Z,22.40
2018-03-01T02:58:23.237Z,24.50
2018-03-01T02:59:23.220Z,21.60
2018-03-01T03:00:23.205Z,28.20
2018-03-01T03:01:23.189Z,21.70
2018-03-01T03:02:23.171Z,24.50
2018-03-01T03:03:23.155Z,21.10
2018-03-01T03:04:23.137Z,21.60
2018-03-01T03:05:23.120Z,24.30
2018-03-01T03:06:23.103Z,20.50
2018-03-01T03:07:23.087Z,22.60
2018-03-01T03:08:23.068Z,24.20
2018-03-01T03:09:23.048Z,22.90
2018-03-01T03:10:23.031Z,22.70
2018-03-01T03:11:23.015Z,26.90
2018-03-01T03:12:22.996Z,23.10
2018-03-01T03:13:22.979Z,22.10
2018-03-01T03:14:22.962Z,19.60
2018-03-01T03:15:22.944Z,25.40
2018-03-01T03:16:22.927Z,23.10
2018-03-01T03:17:22.914Z,17.10
2018-03-01T03:18:22.898Z,22.80
2018-03-01T03:19:22.880Z,23.40
2018-03-01T03:20:22.861Z,24.60
2018-03-01T03:21:22.852Z,22.20
2018-03-01T03:22:22.827Z,23.00
2018-03-01T03:23:22.811Z,23.80
2018-03-01T03:24:22.793Z,26.70
2018-03-01T03:25:22.775Z,18.80
2018-03-01T03:26:22.756Z,23.40
2018-03-01T03:27:22.738Z,21.80
2018-03-01T03:28:22.721Z,20.80
2018-03-01T03:29:22.711Z,22.60
2018-03-01T03:30:22.696Z,23.40
2018-03-01T03:31:22.673Z,24.00
2018-03-01T03:32:22.655Z,21.60
2018-03-01T03:33:22.636Z,23.30
2018-03-01T03:34:22.617Z,23.60
2018-03-01T03:35:22.603Z,20.80
2018-03-01T03:36:22.584Z,23.40
2018-03-01T03:37:22.565Z,23.50
2018-03-01T03:38:22.549Z,24.50
2018-03-01T03:39:22.532Z,20.20
2018-03-01T03:40:22.515Z,23.20
2018-03-01T03:41:22.499Z,23.10
2018-03-01T03:42:22.484Z,22.60
2018-03-01T03:43:22.467Z,25.00
2018-03-01T03:44:22.449Z,25.40
2018-03-01T03:45:22.432Z,23.10
2018-03-01T03:46:22.414Z,25.20
2018-03-01T03:47:22.397Z,25.40
2018-03-01T03:48:22.380Z,24.50
2018-03-01T03:49:22.361Z,23.90
2018-03-01T03:50:22.345Z,23.30
2018-03-01T03:51:22.325Z,27.60
2018-03-01T03:52:22.308Z,22.10
2018-03-01T03:53:22.291Z,23.00
2018-03-01T03:54:22.282Z,23.40
2018-03-01T03:55:22.258Z,20.90
2018-03-01T03:56:22.240Z,22.60
2018-03-01T03:57:22.227Z,24.70
2018-03-01T03:58:22.210Z,22.70
2018-03-01T03:59:22.192Z,25.00
2018-03-01T04:00:22.175Z,23.10
2018-03-01T04:01:22.159Z,23.10
2018-03-01T04:02:22.141Z,21.80
2018-03-01T04:03:22.124Z,25.50
2018-03-01T04:04:22.106Z,20.60
2018-03-01T04:05:22.086Z,25.40
2018-03-01T04:06:22.069Z,23.20
2018-03-01T04:07:22.053Z,22.70
2018-03-01T04:08:22.034Z,24.70
2018-03-01T04:09:22.018Z,20.90
2018-03-01T04:10:22.001Z,23.30
2018-03-01T04:11:21.986Z,20.70
2018-03-01T04:12:21.967Z,23.00
2018-03-01T04:13:21.953Z,26.30
2018-03-01T04:14:21.937Z,25.60
2018-03-01T04:15:21.918Z,23.90
2018-03-01T04:16:21.901Z,22.50
2018-03-01T04:17:21.885Z,22.80
2018-03-01T04:18:21.867Z,22.80
2018-03-01T04:19:21.851Z,22.30
2018-03-01T04:20:21.833Z,22.60
2018-03-01T04:21:21.814Z,23.40
2018-03-01T04:22:21.796Z,24.90
2018-03-01T04:23:21.779Z,21.80
2018-03-01T04:24:21.762Z,23.40
2018-03-01T04:25:21.745Z,22.50
2018-03-01T04:26:21.728Z,22.40
2018-03-01T04:27:21.712Z,20.70
2018-03-01T04:28:21.694Z,22.60
2018-03-01T04:29:21.679Z,24.70
2018-03-01T04:30:21.662Z,23.90
2018-03-01T04:31:21.646Z,22.70
2018-03-01T04:32:21.632Z,23.70
2018-03-01T04:33:21.609Z,28.80
2018-03-01T04:34:21.592Z,21.80
2018-03-01T04:35:21.575Z,24.90
2018-03-01T04:36:21.558Z,24.10
2018-03-01T04:37:21.542Z,21.70
2018-03-01T04:38:21.527Z,22.90
2018-03-01T04:39:21.510Z,23.80
2018-03-01T04:40:21.492Z,24.40
2018-03-01T04:41:21.475Z,27.00
2018-03-01T04:42:21.458Z,25.40
2018-03-01T04:43:21.441Z,21.40
2018-03-01T04:44:21.431Z,23.80
2018-03-01T04:45:21.404Z,23.30
2018-03-01T04:46:21.387Z,25.00
2018-03-01T04:47:21.370Z,24.50
2018-03-01T04:48:21.352Z,22.60
2018-03-01T04:49:21.340Z,23.40
2018-03-01T04:50:21.318Z,24.60
2018-03-01T04:51:21.303Z,23.40
2018-03-01T04:52:21.284Z,25.20
2018-03-01T04:53:21.272Z,22.60
2018-03-01T04:54:21.258Z,23.20
2018-03-01T04:55:21.236Z,22.10
2018-03-01T04:56:21.218Z,26.70
2018-03-01T04:57:21.205Z,24.90
2018-03-01T04:58:21.187Z,22.70
2018-03-01T04:59:21.169Z,24.60
2018-03-01T05:00:21.151Z,22.10
2018-03-01T05:01:21.135Z,24.30
2018-03-01T05:02:21.116Z,21.90
2018-03-01T05:03:21.097Z,23.20
2018-03-01T05:04:21.081Z,25.10
2018-03-01T05:05:21.066Z,23.70
2018-03-01T05:06:21.047Z,23.90
2018-03-01T05:07:21.031Z,23.10
2018-03-01T05:08:21.014Z,25.40
2018-03-01T05:09:21.000Z,23.70
2018-03-01T05:10:20.983Z,24.10
2018-03-01T05:11:20.966Z,27.40
2018-03-01T05:12:20.948Z,25.10
2018-03-01T05:13:20.931Z,24.70
2018-03-01T05:14:20.915Z,21.70
2018-03-01T05:15:20.898Z,24.50
2018-03-01T05:16:20.882Z,22.70
2018-03-01T05:17:20.860Z,24.40
2018-03-01T05:18:20.844Z,24.30
2018-03-01T05:19:20.827Z,24.60
2018-03-01T05:20:20.819Z,23.60
2018-03-01T05:21:20.794Z,24.50
2018-03-01T05:22:20.776Z,23.70
2018-03-01T05:23:20.760Z,23.00
2018-03-01T05:24:20.743Z,25.00
2018-03-01T05:25:20.730Z,24.60
2018-03-01T05:26:20.715Z,23.90
2018-03-01T05:27:20.696Z,25.20
2018-03-01T05:28:20.676Z,25.00
2018-03-01T05:29:20.661Z,22.10
2018-03-01T05:30:20.645Z,25.00
2018-03-01T05:31:20.681Z,26.20
2018-03-01T05:32:20.610Z,23.80
2018-03-01T05:33:20.591Z,23.50
2018-03-01T05:34:20.574Z,24.40
2018-03-01T05:35:20.557Z,23.20
2018-03-01T05:36:20.540Z,22.70
2018-03-01T05:37:20.574Z,22.70
2018-03-01T05:38:20.509Z,23.80
2018-03-01T05:39:20.493Z,25.50
2018-03-01T05:40:20.473Z,24.80
2018-03-01T05:41:20.454Z,24.90
2018-03-01T05:42:20.438Z,22.40
2018-03-01T05:43:20.422Z,25.80
2018-03-01T05:44:20.402Z,26.10
2018-03-01T05:45:20.391Z,26.90
2018-03-01T05:46:20.370Z,24.10
2018-03-01T05:47:20.354Z,25.50
2018-03-01T05:48:20.336Z,23.20
2018-03-01T05:49:20.322Z,22.50
2018-03-01T05:50:20.305Z,22.50
2018-03-01T05:51:20.290Z,24.80
2018-03-01T05:52:20.273Z,21.80
2018-03-01T05:53:20.254Z,25.20
2018-03-01T05:54:20.239Z,25.00
2018-03-01T05:55:20.221Z,22.10
2018-03-01T05:56:20.204Z,23.80
2018-03-01T05:57:20.184Z,27.00
2018-03-01T05:58:20.167Z,24.90
2018-03-01T05:59:20.152Z,24.80
2018-03-01T06:00:20.132Z,26.10
2018-03-01T06:01:20.116Z,24.60
2018-03-01T06:02:20.099Z,26.40
2018-03-01T06:03:20.084Z,21.90
2018-03-01T06:04:20.066Z,22.80
2018-03-01T06:05:20.052Z,26.40
2018-03-01T06:06:20.041Z,24.10
2018-03-01T06:07:20.021Z,24.50
2018-03-01T06:08:20.001Z,26.60
2018-03-01T06:09:19.983Z,25.90
2018-03-01T06:10:19.966Z,25.70
2018-03-01T06:11:19.950Z,27.00
2018-03-01T06:12:19.932Z,24.20
2018-03-01T06:13:19.913Z,24.30
2018-03-01T06:14:19.896Z,26.10
2018-03-01T06:15:19.885Z,27.40
2018-03-01T06:16:19.861Z,24.10
2018-03-01T06:17:19.844Z,22.50
2018-03-01T06:18:19.828Z,26.40
2018-03-01T06:19:19.811Z,25.40
2018-03-01T06:20:19.793Z,25.90
2018-03-01T06:21:19.780Z,24.80
2018-03-01T06:22:19.763Z,23.50
2018-03-01T06:23:19.746Z,23.80
2018-03-01T06:24:19.728Z,26.40
2018-03-01T06:25:19.711Z,26.70
2018-03-01T06:26:19.693Z,25.50
2018-03-01T06:27:19.680Z,24.30
2018-03-01T06:28:19.659Z,27.00
2018-03-01T06:29:19.640Z,28.50
2018-03-01T06:30:19.624Z,24.90
2018-03-01T06:31:19.607Z,25.20
2018-03-01T06:32:19.590Z,22.30
2018-03-01T06:33:19.572Z,24.70
2018-03-01T06:34:19.555Z,23.00
2018-03-01T06:35:19.539Z,23.90
2018-03-01T06:36:19.521Z,26.10
2018-03-01T06:37:19.506Z,28.60
2018-03-01T06:38:19.491Z,22.00
2018-03-01T06:39:19.473Z,21.90
2018-03-01T06:40:19.456Z,26.60
2018-03-01T06:41:19.436Z,25.20
2018-03-01T06:42:19.419Z,23.20
2018-03-01T06:43:19.403Z,23.50
2018-03-01T06:44:19.384Z,22.70
2018-03-01T06:45:19.370Z,22.60
2018-03-01T06:46:19.354Z,24.60
2018-03-01T06:47:19.337Z,29.00
2018-03-01T06:48:19.319Z,26.50
2018-03-01T06:49:19.302Z,24.00
2018-03-01T06:50:19.291Z,24.40
2018-03-01T06:51:19.271Z,21.80
2018-03-01T06:52:19.253Z,22.90
2018-03-01T06:53:19.232Z,26.00
2018-03-01T06:54:19.216Z,25.30
2018-03-01T06:55:19.200Z,23.40
2018-03-01T06:56:19.183Z,30.40
2018-03-01T06:57:19.170Z,22.20
2018-03-01T06:58:19.150Z,22.30
2018-03-01T06:59:19.134Z,29.40
2018-03-01T07:00:19.116Z,22.70
2018-03-01T07:01:19.103Z,28.90
2018-03-01T07:02:19.088Z,25.80
2018-03-01T07:03:19.071Z,27.10
2018-03-01T07:04:19.053Z,24.60
2018-03-01T07:05:19.037Z,28.30
2018-03-01T07:06:19.022Z,22.10
2018-03-01T07:07:19.004Z,26.10
2018-03-01T07:08:18.988Z,30.20
2018-03-01T07:09:18.968Z,25.80
2018-03-01T07:10:18.952Z,28.10
2018-03-01T07:11:18.953Z,26.80
2018-03-01T07:12:18.919Z,25.20
2018-03-01T07:13:18.904Z,28.50
2018-03-01T07:14:18.885Z,24.60
2018-03-01T07:15:18.874Z,25.20
2018-03-01T07:16:18.854Z,22.00
2018-03-01T07:17:18.842Z,23.30
2018-03-01T07:18:18.825Z,28.30
2018-03-01T07:19:18.809Z,24.70
2018-03-01T07:20:18.795Z,28.40
2018-03-01T07:21:18.782Z,27.90
2018-03-01T07:22:18.761Z,27.40
2018-03-01T07:23:18.747Z,26.10
2018-03-01T07:24:18.730Z,30.30
2018-03-01T07:25:18.712Z,27.50
2018-03-01T07:26:18.696Z,29.00
2018-03-01T07:27:18.682Z,28.60
2018-03-01T07:28:18.669Z,31.50
2018-03-01T07:29:18.651Z,31.70
2018-03-01T07:30:18.637Z,28.10
2018-03-01T07:31:18.624Z,31.80
2018-03-01T07:32:18.609Z,27.00
2018-03-01T07:33:18.597Z,32.90
2018-03-01T07:34:18.586Z,28.20
2018-03-01T07:35:18.571Z,27.80
2018-03-01T07:36:18.558Z,32.30
2018-03-01T07:37:18.545Z,25.50
2018-03-01T07:38:18.532Z,30.70
2018-03-01T07:39:18.520Z,26.90
2018-03-01T07:40:18.507Z,25.80
2018-03-01T07:41:18.492Z,28.20
2018-03-01T07:42:18.480Z,32.90
2018-03-01T07:43:18.468Z,31.10
2018-03-01T07:44:18.457Z,27.20
2018-03-01T07:45:18.448Z,33.70
2018-03-01T07:46:18.443Z,33.50
2018-03-01T07:47:18.425Z,28.00
2018-03-01T07:48:18.414Z,29.70
2018-03-01T07:49:18.399Z,29.10
2018-03-01T07:50:18.390Z,31.60
2018-03-01T07:51:18.380Z,28.10
2018-03-01T07:52:18.367Z,27.30
2018-03-01T07:53:18.357Z,32.10
2018-03-01T07:54:18.346Z,28.40
2018-03-01T07:55:18.337Z,30.80
2018-03-01T07:56:18.356Z,30.60
2018-03-01T07:57:18.318Z,34.80
2018-03-01T07:58:18.308Z,30.30
2018-03-01T07:59:18.297Z,27.80
2018-03-01T08:00:18.286Z,30.20
2018-03-01T08:01:18.275Z,31.00
2018-03-01T08:02:18.263Z,28.20
2018-03-01T08:03:18.253Z,33.70
2018-03-01T08:04:18.257Z,28.20
2018-03-01T08:05:18.227Z,26.80
2018-03-01T08:06:18.215Z,28.80
2018-03-01T08:07:18.204Z,22.50
2018-03-01T08:08:18.197Z,29.10
2018-03-01T08:09:18.179Z,27.40
2018-03-01T08:10:18.169Z,25.90
2018-03-01T08:11:18.170Z,29.20
2018-03-01T08:12:18.144Z,29.80
2018-03-01T08:13:18.134Z,24.80
2018-03-01T08:14:18.122Z,29.90
2018-03-01T08:15:18.110Z,29.70
2018-03-01T08:16:18.096Z,26.90
2018-03-01T08:17:18.085Z,27.40
2018-03-01T08:18:18.072Z,29.70
2018-03-01T08:19:18.060Z,28.50
2018-03-01T08:20:18.048Z,23.10
2018-03-01T08:21:18.032Z,29.60
2018-03-01T08:22:18.020Z,27.10
2018-03-01T08:23:18.010Z,30.10
2018-03-01T08:24:17.998Z,28.00
2018-03-01T08:25:18.028Z,30.30
2018-03-01T08:26:17.971Z,29.20
2018-03-01T08:27:17.961Z,31.50
2018-03-01T08:28:17.948Z,26.50
2018-03-01T08:29:17.939Z,29.50
2018-03-01T08:30:17.928Z,27.50
2018-03-01T08:31:17.926Z,29.80
2018-03-01T08:32:17.908Z,26.10
2018-03-01T08:33:17.891Z,28.40
2018-03-01T08:34:17.882Z,29.10
2018-03-01T08:35:17.870Z,27.90
2018-03-01T08:36:17.860Z,27.90
2018-03-01T08:37:17.845Z,30.60
2018-03-01T08:38:17.835Z,26.40
2018-03-01T08:39:17.826Z,28.60
2018-03-01T08:40:17.816Z,28.20
2018-03-01T08:41:17.807Z,27.10
2018-03-01T08:42:17.797Z,29.70
2018-03-01T08:43:17.789Z,32.20
2018-03-01T08:44:17.779Z,28.00
2018-03-01T08:45:17.772Z,28.70
2018-03-01T08:46:17.765Z,28.20
2018-03-01T08:47:17.756Z,29.30
2018-03-01T08:48:17.747Z,27.30
2018-03-01T08:49:17.735Z,30.80
2018-03-01T08:50:17.726Z,28.20
2018-03-01T08:51:17.721Z,29.20
2018-03-01T08:52:17.709Z,29.00
2018-03-01T08:53:17.705Z,32.60
2018-03-01T08:54:17.696Z,27.80
2018-03-01T08:55:17.687Z,29.70
2018-03-01T08:56:17.681Z,29.40
2018-03-01T08:57:17.670Z,28.90
2018-03-01T08:58:17.662Z,32.00
2018-03-01T08:59:17.653Z,36.60
2018-03-01T09:00:17.644Z,26.60
2018-03-01T09:01:17.634Z,28.70
2018-03-01T09:02:17.624Z,31.30
2018-03-01T09:03:17.616Z,27.70
2018-03-01T09:04:17.604Z,29.30
2018-03-01T09:05:17.596Z,29.40
2018-03-01T09:06:17.585Z,26.90
2018-03-01T09:07:17.577Z,30.20
2018-03-01T09:08:17.567Z,27.00
2018-03-01T09:09:17.559Z,25.30
2018-03-01T09:10:17.550Z,25.30
2018-03-01T09:11:17.540Z,26.50
2018-03-01T09:12:17.530Z,25.40
2018-03-01T09:13:17.520Z,29.40
2018-03-01T09:14:17.509Z,28.00
2018-03-01T09:15:17.501Z,28.00
2018-03-01T09:16:17.490Z,28.80
2018-03-01T09:17:17.476Z,29.40
2018-03-01T09:18:17.468Z,29.10
2018-03-01T09:19:17.461Z,31.80
2018-03-01T09:20:17.450Z,27.70
2018-03-01T09:21:17.443Z,26.10
2018-03-01T09:22:17.435Z,30.10
2018-03-01T09:23:17.427Z,33.00
2018-03-01T09:24:17.418Z,25.70
2018-03-01T09:25:17.413Z,27.90
2018-03-01T09:26:17.407Z,26.00
2018-03-01T09:27:17.400Z,28.20
2018-03-01T09:28:17.391Z,27.80
2018-03-01T09:29:17.386Z,25.30
2018-03-01T09:30:17.382Z,26.70
2018-03-01T09:31:17.374Z,28.60
2018-03-01T09:32:17.367Z,29.30
2018-03-01T09:33:17.359Z,26.70
2018-03-01T09:34:17.353Z,29.00
2018-03-01T09:35:17.348Z,30.10
2018-03-01T09:36:17.344Z,26.50
2018-03-01T09:37:17.339Z,25.20
2018-03-01T09:38:17.334Z,27.70
2018-03-01T09:39:17.329Z,24.80
2018-03-01T09:40:17.324Z,26.00
2018-03-01T09:41:17.323Z,28.60
2018-03-01T09:42:17.319Z,27.10
2018-03-01T09:43:17.321Z,23.80
2018-03-01T09:44:17.312Z,24.10
2018-03-01T09:45:17.306Z,25.80
2018-03-01T09:46:17.303Z,28.40
2018-03-01T09:47:17.301Z,29.20
2018-03-01T09:48:17.295Z,28.20
2018-03-01T09:49:17.289Z,29.50
2018-03-01T09:50:17.285Z,27.70
2018-03-01T09:51:17.282Z,27.00
2018-03-01T09:52:17.276Z,25.60
2018-03-01T09:53:17.274Z,29.30
2018-03-01T09:54:17.271Z,32.80
2018-03-01T09:55:17.267Z,26.00
2018-03-01T09:56:17.261Z,32.90
2018-03-01T09:57:17.253Z,26.40
2018-03-01T09:58:17.248Z,27.00
2018-03-01T09:59:17.245Z,29.70
2018-03-01T10:00:17.239Z,27.00
2018-03-01T10:01:17.236Z,28.80
2018-03-01T10:02:17.230Z,24.80
2018-03-01T10:03:17.244Z,25.90
2018-03-01T10:04:17.225Z,27.00
2018-03-01T10:05:17.219Z,28.70
2018-03-01T10:06:17.215Z,26.50
2018-03-01T10:07:17.263Z,23.20
2018-03-01T10:08:17.205Z,23.70
2018-03-01T10:09:17.201Z,26.50
2018-03-01T10:10:17.195Z,24.00
2018-03-01T10:11:17.192Z,24.60
2018-03-01T10:12:17.188Z,25.10
2018-03-01T10:13:17.180Z,29.30
2018-03-01T10:14:17.177Z,25.30
2018-03-01T10:15:17.174Z,26.80
2018-03-01T10:16:17.171Z,27.90
2018-03-01T10:17:17.166Z,25.90
2018-03-01T10:18:17.164Z,27.10
2018-03-01T10:19:17.160Z,27.20
2018-03-01T10:20:17.157Z,24.60
2018-03-01T10:21:17.159Z,25.80
2018-03-01T10:22:17.156Z,24.30
2018-03-01T10:23:17.153Z,24.20
2018-03-01T10:24:17.152Z,24.40
2018-03-01T10:25:17.150Z,25.30
2018-03-01T10:26:17.154Z,24.60
2018-03-01T10:27:17.146Z,23.40
2018-03-01T10:28:17.146Z,23.00
2018-03-01T10:29:17.141Z,25.20
2018-03-01T10:30:17.139Z,21.40
2018-03-01T10:31:17.138Z,28.00
2018-03-01T10:32:17.136Z,21.60
2018-03-01T10:33:17.140Z,21.20
2018-03-01T10:34:17.133Z,23.10
2018-03-01T10:35:17.132Z,21.30
2018-03-01T10:36:17.128Z,22.20
2018-03-01T10:37:17.130Z,21.40
2018-03-01T10:38:17.127Z,26.20
2018-03-01T10:39:17.124Z,21.50
2018-03-01T10:40:17.126Z,22.90
2018-03-01T10:41:17.118Z,21.50
2018-03-01T10:42:17.118Z,25.50
2018-03-01T10:43:17.113Z,22.70
2018-03-01T10:44:17.112Z,23.80
2018-03-01T10:45:17.104Z,21.80
2018-03-01T10:46:17.101Z,20.50
2018-03-01T10:47:17.098Z,20.10
2018-03-01T10:48:17.092Z,20.20
2018-03-01T10:49:17.089Z,22.30
2018-03-01T10:50:17.086Z,21.40
2018-03-01T10:51:17.082Z,21.60
2018-03-01T10:52:17.078Z,21.70
2018-03-01T10:53:17.077Z,21.20
2018-03-01T10:54:17.072Z,23.20
2018-03-01T10:55:17.068Z,22.60
2018-03-01T10:56:17.064Z,21.30
2018-03-01T10:57:17.059Z,21.20
2018-03-01T10:58:17.055Z,20.90
2018-03-01T10:59:17.050Z,22.60
2018-03-01T11:00:17.045Z,19.90
2018-03-01T11:01:17.041Z,20.00
2018-03-01T11:02:17.034Z,20.60
2018-03-01T11:03:17.031Z,20.10
2018-03-01T11:04:17.024Z,21.20
2018-03-01T11:05:17.023Z,19.10
2018-03-01T11:06:17.018Z,19.70
2018-03-01T11:07:17.012Z,19.70
2018-03-01T11:08:17.006Z,22.30
2018-03-01T11:09:17.005Z,21.90
2018-03-01T11:10:17.000Z,22.80
2018-03-01T11:11:16.995Z,20.10
2018-03-01T11:12:16.990Z,21.20
2018-03-01T11:13:16.986Z,19.00
2018-03-01T11:14:16.980Z,21.40
2018-03-01T11:15:16.979Z,21.10
2018-03-01T11:16:16.970Z,20.60
2018-03-01T11:17:17.007Z,19.00
2018-03-01T11:18:16.961Z,24.80
2018-03-01T11:19:16.953Z,22.30
2018-03-01T11:20:16.948Z,21.60
2018-03-01T11:21:16.942Z,21.90
2018-03-01T11:22:16.938Z,21.30
2018-03-01T11:23:16.978Z,21.90
2018-03-01T11:24:16.926Z,24.40
2018-03-01T11:25:16.926Z,20.50
2018-03-01T11:26:16.919Z,19.40
2018-03-01T11:27:16.913Z,20.30
2018-03-01T11:28:16.907Z,20.20
2018-03-01T11:29:16.935Z,20.30
2018-03-01T11:30:16.896Z,19.50
2018-03-01T11:31:16.891Z,21.90
2018-03-01T11:32:16.884Z,20.10
2018-03-01T11:33:16.876Z,20.30
2018-03-01T11:34:16.870Z,18.80
2018-03-01T11:35:16.864Z,16.20
2018-03-01T11:36:16.857Z,17.70
2018-03-01T11:37:16.851Z,21.80
2018-03-01T11:38:16.845Z,18.20
2018-03-01T11:39:16.844Z,18.30
2018-03-01T11:40:16.832Z,18.30
2018-03-01T11:41:16.829Z,20.80
2018-03-01T11:42:16.821Z,18.70
2018-03-01T11:43:16.816Z,19.10
2018-03-01T11:44:16.808Z,19.70
2018-03-01T11:45:16.800Z,20.20
2018-03-01T11:46:16.794Z,21.90
2018-03-01T11:47:16.785Z,20.90
2018-03-01T11:48:16.779Z,20.00
2018-03-01T11:49:16.767Z,22.60
2018-03-01T11:50:16.758Z,20.10
2018-03-01T11:51:16.751Z,20.80
2018-03-01T11:52:16.742Z,20.70
2018-03-01T11:53:16.733Z,21.30
2018-03-01T11:54:16.726Z,19.70
2018-03-01T11:55:16.718Z,21.40
2018-03-01T11:56:16.708Z,20.80
2018-03-01T11:57:16.707Z,22.00
2018-03-01T11:58:16.693Z,27.30
2018-03-01T11:59:16.686Z,22.10
2018-03-01T12:00:16.676Z,20.00
2018-03-01T12:01:16.664Z,21.20
2018-03-01T12:02:16.656Z,22.00
2018-03-01T12:03:16.647Z,22.20
2018-03-01T12:04:16.637Z,20.20
2018-03-01T12:05:16.631Z,32.40
2018-03-01T12:06:16.622Z,21.50
2018-03-01T12:07:16.613Z,19.40
2018-03-01T12:08:16.605Z,21.80
2018-03-01T12:09:16.596Z,21.00
2018-03-01T12:10:16.587Z,20.40
2018-03-01T12:11:16.577Z,23.50
2018-03-01T12:12:16.567Z,19.60
2018-03-01T12:13:16.556Z,18.30
2018-03-01T12:14:16.548Z,18.00
2018-03-01T12:15:16.538Z,19.80
2018-03-01T12:16:16.527Z,21.20
2018-03-01T12:17:16.518Z,19.10
2018-03-01T12:18:16.508Z,19.80
2018-03-01T12:19:16.499Z,18.10
2018-03-01T12:20:16.489Z,22.00
2018-03-01T12:21:16.482Z,21.20
2018-03-01T12:22:16.472Z,27.10
2018-03-01T12:23:16.464Z,21.90
2018-03-01T12:24:16.453Z,23.60
2018-03-01T12:25:16.445Z,19.30
2018-03-01T12:26:16.435Z,22.60
2018-03-01T12:27:16.426Z,20.00
2018-03-01T12:28:16.414Z,25.10
2018-03-01T12:29:16.403Z,21.70
2018-03-01T12:30:16.393Z,20.00
2018-03-01T12:31:16.386Z,20.70
2018-03-01T12:32:16.373Z,21.40
2018-03-01T12:33:16.560Z,20.30
2018-03-01T12:34:16.354Z,18.90
2018-03-01T12:35:16.346Z,19.10
2018-03-01T12:36:16.335Z,19.10
2018-03-01T12:37:16.328Z,19.40
2018-03-01T12:38:16.328Z,21.70
2018-03-01T12:39:16.309Z,19.40
2018-03-01T12:40:16.300Z,18.90
2018-03-01T12:41:16.289Z,19.70
2018-03-01T12:42:16.284Z,19.70
2018-03-01T12:43:16.270Z,20.00
2018-03-01T12:44:16.260Z,21.10
2018-03-01T12:45:16.250Z,19.20
2018-03-01T12:46:16.241Z,19.70
2018-03-01T12:47:16.235Z,18.90
2018-03-01T12:48:16.220Z,20.50
2018-03-01T12:49:16.212Z,21.30
2018-03-01T12:50:16.201Z,22.70
2018-03-01T12:51:16.192Z,18.10
2018-03-01T12:52:16.183Z,24.10